createdAt,value
2019-04-21T00:00:53.370Z,12.93
2019-04-21T00:03:23.489Z,11.67
2019-04-21T00:06:08.848Z,11.43
2019-04-21T00:11:09.350Z,10.97
2019-04-21T00:13:32.558Z,10.93
2019-04-21T00:15:57.342Z,11.13
2019-04-21T00:18:57.493Z,10.70
2019-04-21T00:21:29.127Z,11.00
2019-04-21T00:24:20.216Z,11.20
2019-04-21T00:26:58.992Z,11.17
2019-04-21T00:29:33.901Z,10.63
2019-04-21T00:31:58.925Z,10.47
2019-04-21T00:34:15.407Z,11.50
2019-04-21T00:36:57.369Z,11.30
2019-04-21T00:39:45.031Z,10.30
2019-04-21T00:42:08.614Z,11.30
2019-04-21T00:44:29.443Z,10.70
2019-04-21T00:47:05.418Z,11.87
2019-04-21T00:49:43.148Z,12.07
2019-04-21T00:53:08.289Z,11.90
2019-04-21T00:56:01.531Z,12.87
2019-04-21T00:58:26.878Z,11.53
2019-04-21T01:00:51.081Z,12.07
2019-04-21T01:03:26.532Z,11.60
2019-04-21T01:06:10.020Z,12.60
2019-04-21T01:08:30.257Z,12.50
2019-04-21T01:10:47.361Z,12.53
2019-04-21T01:16:00.783Z,12.00
2019-04-21T01:18:31.445Z,12.70
2019-04-21T01:20:39.266Z,12.80
2019-04-21T01:23:08.613Z,12.57
2019-04-21T01:25:44.880Z,11.53
2019-04-21T01:28:25.810Z,12.37
2019-04-21T01:30:57.359Z,12.47
2019-04-21T01:33:34.912Z,11.70
2019-04-21T01:35:59.339Z,11.73
2019-04-21T01:41:06.969Z,12.10
2019-04-21T01:43:33.489Z,12.67
2019-04-21T01:46:06.667Z,12.67
2019-04-21T01:48:37.171Z,12.37
2019-04-21T01:51:07.583Z,12.93
2019-04-21T01:53:48.638Z,12.93
2019-04-21T01:56:41.864Z,13.13
2019-04-21T01:58:59.222Z,12.77
2019-04-21T02:01:39.103Z,12.80
2019-04-21T02:04:23.041Z,13.03
2019-04-21T02:06:45.623Z,13.10
2019-04-21T02:09:12.900Z,12.90
2019-04-21T02:11:50.702Z,13.70
2019-04-21T02:14:17.603Z,15.07
2019-04-21T02:16:50.963Z,15.33
2019-04-21T02:19:12.586Z,15.27
2019-04-21T02:21:43.666Z,15.10
2019-04-21T02:24:31.656Z,14.57
2019-04-21T02:26:53.863Z,15.47
2019-04-21T02:29:27.992Z,15.40
2019-04-21T02:32:11.375Z,14.80
2019-04-21T02:34:44.704Z,16.53
2019-04-21T02:37:30.876Z,18.57
2019-04-21T02:39:44.365Z,21.03
2019-04-21T02:44:46.266Z,19.57
2019-04-21T02:47:05.179Z,19.13
2019-04-21T02:52:27.411Z,17.87
2019-04-21T02:57:19.015Z,16.80
2019-04-21T03:00:06.518Z,16.17
2019-04-21T03:05:42.433Z,16.53
2019-04-21T03:08:11.208Z,16.27
2019-04-21T03:10:51.772Z,15.70
2019-04-21T03:13:13.871Z,16.33
2019-04-21T03:15:59.205Z,15.57
2019-04-21T03:23:19.187Z,15.13
2019-04-21T03:26:03.504Z,14.13
2019-04-21T03:28:14.035Z,14.37
2019-04-21T03:31:11.775Z,15.03
2019-04-21T03:36:13.093Z,17.03
2019-04-21T03:38:21.765Z,16.40
2019-04-21T03:40:52.810Z,17.90
2019-04-21T03:45:56.903Z,17.07
2019-04-21T03:48:27.229Z,14.53
2019-04-21T03:51:12.192Z,15.27
2019-04-21T03:53:24.941Z,14.63
2019-04-21T03:58:41.429Z,15.40
2019-04-21T04:01:38.694Z,14.30
2019-04-21T04:04:11.603Z,13.63
2019-04-21T04:06:48.857Z,13.90
2019-04-21T04:09:40.019Z,14.07
2019-04-21T04:14:26.666Z,15.77
2019-04-21T04:17:04.684Z,14.97
2019-04-21T04:19:26.280Z,15.03
2019-04-21T04:24:34.074Z,14.50
2019-04-21T04:27:02.538Z,15.47
2019-04-21T04:29:24.157Z,14.93
2019-04-21T04:32:16.483Z,15.50
2019-04-21T04:34:49.858Z,15.87
2019-04-21T04:37:30.355Z,15.13
2019-04-21T04:40:00.582Z,16.63
2019-04-21T04:45:15.088Z,17.37
2019-04-21T04:47:32.830Z,18.13
2019-04-21T04:50:22.537Z,17.83
2019-04-21T04:57:49.215Z,15.13
2019-04-21T05:12:46.025Z,16.67
2019-04-21T05:17:48.356Z,15.27
2019-04-21T05:20:15.807Z,14.50
2019-04-21T05:22:42.757Z,13.43
2019-04-21T05:25:08.357Z,13.40
2019-04-21T05:27:43.819Z,14.00
2019-04-21T05:33:05.386Z,14.50
2019-04-21T05:36:04.679Z,15.93
2019-04-21T05:38:57.011Z,16.30
2019-04-21T05:41:18.140Z,14.80
2019-04-21T05:43:57.513Z,15.10
2019-04-21T05:46:32.246Z,15.33
2019-04-21T05:49:02.909Z,15.80
2019-04-21T05:51:31.779Z,15.93
2019-04-21T05:54:14.992Z,14.93
2019-04-21T05:56:46.473Z,14.57
2019-04-21T05:59:07.839Z,15.43
2019-04-21T06:02:09.006Z,14.83
2019-04-21T06:04:26.504Z,15.97
2019-04-21T06:06:53.804Z,16.50
2019-04-21T06:09:19.746Z,18.87
2019-04-21T06:11:50.793Z,16.40
2019-04-21T06:14:25.153Z,16.40
2019-04-21T06:16:56.971Z,16.20
2019-04-21T06:19:22.564Z,16.47
2019-04-21T06:21:51.254Z,17.20
2019-04-21T06:24:20.512Z,17.07
2019-04-21T06:29:34.749Z,16.97
2019-04-21T06:34:40.755Z,17.13
2019-04-21T06:42:32.508Z,18.30
2019-04-21T06:45:05.967Z,18.17
2019-04-21T06:47:42.127Z,18.20
2019-04-21T06:50:01.878Z,18.80
2019-04-21T06:55:10.286Z,18.53
2019-04-21T06:57:41.840Z,19.20
2019-04-21T07:00:10.378Z,19.83
2019-04-21T07:05:15.480Z,19.10
2019-04-21T07:07:43.404Z,19.90
2019-04-21T07:10:14.310Z,21.60
2019-04-21T07:12:48.294Z,19.50
2019-04-21T07:15:18.006Z,20.87
2019-04-21T07:17:45.384Z,20.17
2019-04-21T07:20:18.827Z,18.23
2019-04-21T07:25:22.141Z,19.57
2019-04-21T07:27:56.735Z,18.17
2019-04-21T07:30:26.673Z,19.00
2019-04-21T07:33:07.305Z,18.67
2019-04-21T07:35:28.836Z,18.60
2019-04-21T07:37:58.000Z,20.57
2019-04-21T07:40:24.707Z,22.35
2019-04-21T07:42:55.678Z,25.75
2019-04-21T07:45:22.694Z,21.10
2019-04-21T07:48:11.045Z,21.52
2019-04-21T07:51:00.824Z,22.02
2019-04-21T07:53:38.652Z,21.20
2019-04-21T07:55:46.862Z,20.12
2019-04-21T07:58:40.441Z,20.37
2019-04-21T08:01:05.641Z,19.55
2019-04-21T08:03:41.082Z,20.17
2019-04-21T08:06:12.303Z,19.75
2019-04-21T08:08:34.273Z,18.52
2019-04-21T08:11:10.861Z,19.07
2019-04-21T08:13:50.276Z,21.10
2019-04-21T08:16:10.860Z,18.07
2019-04-21T08:18:47.236Z,19.40
2019-04-21T08:21:11.084Z,18.48
2019-04-21T08:23:43.465Z,20.05
2019-04-21T08:26:17.107Z,19.15
2019-04-21T08:28:52.385Z,17.92
2019-04-21T08:31:25.768Z,18.37
2019-04-21T08:33:55.704Z,22.00
2019-04-21T08:36:24.564Z,17.57
2019-04-21T08:38:54.514Z,17.60
2019-04-21T08:41:27.723Z,18.05
2019-04-21T08:43:51.403Z,17.20
2019-04-21T08:46:24.951Z,15.83
2019-04-21T08:48:55.419Z,15.45
2019-04-21T08:54:04.129Z,15.00
2019-04-21T08:57:01.182Z,12.93
2019-04-21T09:02:29.451Z,11.70
2019-04-21T09:04:56.730Z,11.83
2019-04-21T09:07:32.116Z,10.78
2019-04-21T09:09:57.757Z,10.40
2019-04-21T09:12:29.097Z,9.70
2019-04-21T09:15:03.104Z,8.55
2019-04-21T09:17:27.694Z,11.90
2019-04-21T09:20:09.708Z,10.28
2019-04-21T09:22:30.231Z,9.05
2019-04-21T09:25:05.505Z,8.88
2019-04-21T09:27:37.828Z,8.08
2019-04-21T09:29:55.889Z,8.95
2019-04-21T09:32:25.744Z,8.85
2019-04-21T09:34:53.442Z,8.28
2019-04-21T09:37:36.680Z,8.88
2019-04-21T09:39:57.381Z,8.33
2019-04-21T09:42:33.286Z,8.58
2019-04-21T09:45:00.577Z,7.55
2019-04-21T09:47:35.186Z,8.20
2019-04-21T09:50:01.812Z,7.80
2019-04-21T09:52:44.311Z,7.10
2019-04-21T09:55:11.753Z,7.30
2019-04-21T09:57:44.298Z,7.10
2019-04-21T10:00:13.156Z,6.90
2019-04-21T10:02:48.221Z,6.92
2019-04-21T10:05:10.270Z,6.92
2019-04-21T10:07:42.276Z,8.05
2019-04-21T10:10:10.992Z,7.10
2019-04-21T10:12:41.104Z,6.53
2019-04-21T10:15:10.713Z,6.85
2019-04-21T10:17:47.448Z,6.70
2019-04-21T10:20:17.188Z,6.22
2019-04-21T10:22:46.873Z,7.12
2019-04-21T10:25:16.782Z,6.28
2019-04-21T10:27:47.180Z,6.12
2019-04-21T10:30:20.291Z,6.20
2019-04-21T10:32:50.207Z,6.85
2019-04-21T10:35:21.805Z,6.22
2019-04-21T10:38:05.333Z,6.10
2019-04-21T10:40:21.869Z,6.58
2019-04-21T10:42:52.273Z,5.90
2019-04-21T10:45:22.991Z,6.45
2019-04-21T10:47:52.861Z,8.03
2019-04-21T10:50:22.680Z,6.90
2019-04-21T10:53:00.899Z,6.20
2019-04-21T10:55:44.403Z,7.97
2019-04-21T10:58:10.818Z,6.17
2019-04-21T11:00:42.061Z,5.55
2019-04-21T11:03:29.267Z,5.65
2019-04-21T11:05:59.006Z,6.00
2019-04-21T11:08:35.433Z,6.65
2019-04-21T11:10:59.698Z,5.15
2019-04-21T11:13:30.585Z,5.90
2019-04-21T11:16:01.346Z,6.05
2019-04-21T11:18:31.650Z,6.00
2019-04-21T11:21:02.848Z,6.00
2019-04-21T11:23:33.197Z,6.17
2019-04-21T11:26:06.479Z,6.10
2019-04-21T11:28:36.820Z,5.87
2019-04-21T11:31:07.036Z,6.37
2019-04-21T11:33:37.611Z,6.45
2019-04-21T11:36:07.152Z,5.65
2019-04-21T11:38:58.089Z,6.10
2019-04-21T11:41:13.879Z,6.35
2019-04-21T11:43:46.497Z,6.97
2019-04-21T11:46:16.430Z,6.28
2019-04-21T11:48:46.154Z,6.83
2019-04-21T11:51:15.682Z,6.07
2019-04-21T11:53:46.495Z,6.20
2019-04-21T11:56:16.830Z,5.60
2019-04-21T11:58:47.715Z,6.20
2019-04-21T12:01:17.941Z,5.50
2019-04-21T12:03:47.600Z,6.03
2019-04-21T12:06:17.469Z,5.70
2019-04-21T12:08:49.919Z,6.23
2019-04-21T12:11:18.147Z,5.87
2019-04-21T12:13:48.037Z,5.40
2019-04-21T12:16:17.467Z,6.13
2019-04-21T12:18:47.157Z,6.03
2019-04-21T12:21:16.636Z,5.93
2019-04-21T12:23:46.012Z,5.83
2019-04-21T12:26:15.969Z,6.30
2019-04-21T12:28:45.959Z,5.63
2019-04-21T12:31:33.742Z,5.50
2019-04-21T12:34:06.106Z,5.60
2019-04-21T12:36:35.835Z,5.83
2019-04-21T12:39:08.775Z,6.00
2019-04-21T12:41:38.532Z,6.33
2019-04-21T12:44:08.947Z,11.50
2019-04-21T12:46:41.308Z,6.10
2019-04-21T12:49:11.795Z,6.10
2019-04-21T12:51:41.868Z,5.70
2019-04-21T12:54:11.996Z,6.40
2019-04-21T12:56:41.518Z,5.73
2019-04-21T12:59:12.062Z,5.73
2019-04-21T13:01:41.552Z,5.50
2019-04-21T13:04:11.035Z,5.60
2019-04-21T13:06:41.527Z,5.83
2019-04-21T13:09:14.314Z,5.60
2019-04-21T13:11:43.430Z,5.90
2019-04-21T13:14:13.664Z,5.53
2019-04-21T13:16:43.490Z,6.10
2019-04-21T13:19:13.358Z,6.07
2019-04-21T13:21:42.791Z,6.10
2019-04-21T13:24:12.197Z,5.60
2019-04-21T13:26:47.250Z,5.73
2019-04-21T13:29:12.746Z,6.07
2019-04-21T13:31:42.554Z,5.67
2019-04-21T13:34:12.094Z,6.13
2019-04-21T13:36:41.536Z,5.70
2019-04-21T13:42:11.090Z,5.40
2019-04-21T13:44:33.068Z,5.77
2019-04-21T13:47:04.753Z,5.67
2019-04-21T13:49:35.073Z,5.40
2019-04-21T13:52:04.857Z,5.70
2019-04-21T13:54:35.582Z,5.47
2019-04-21T13:57:05.201Z,5.70
2019-04-21T13:59:38.449Z,5.50
2019-04-21T14:02:08.928Z,6.60
2019-04-21T14:04:38.376Z,5.50
2019-04-21T14:07:10.095Z,5.90
2019-04-21T14:09:50.051Z,5.23
2019-04-21T14:12:11.728Z,5.87
2019-04-21T14:14:42.028Z,5.57
2019-04-21T14:17:12.775Z,5.73
2019-04-21T14:19:43.469Z,5.67
2019-04-21T14:22:15.903Z,6.93
2019-04-21T14:24:45.818Z,6.83
2019-04-21T14:27:16.327Z,8.77
2019-04-21T14:29:45.978Z,5.80
2019-04-21T14:32:16.097Z,5.40
2019-04-21T14:34:48.500Z,5.77
2019-04-21T14:37:17.025Z,5.40
2019-04-21T14:39:52.748Z,5.07
2019-04-21T14:42:18.095Z,6.00
2019-04-21T14:44:49.035Z,5.33
2019-04-21T14:47:31.507Z,5.00
2019-04-21T14:50:24.237Z,5.87
2019-04-21T14:53:25.703Z,5.37
2019-04-21T14:55:55.378Z,5.53
2019-04-21T14:58:25.441Z,5.83
2019-04-21T15:00:58.272Z,6.23
2019-04-21T15:03:27.901Z,5.30
2019-04-21T15:05:57.750Z,7.00
2019-04-21T15:08:27.296Z,5.63
2019-04-21T15:10:56.928Z,5.77
2019-04-21T15:13:27.873Z,5.13
2019-04-21T15:15:57.603Z,5.47
2019-04-21T15:18:30.609Z,5.43
2019-04-21T15:21:01.383Z,5.70
2019-04-21T15:23:32.449Z,5.07
2019-04-21T15:26:02.238Z,5.70
2019-04-21T15:28:33.566Z,7.53
2019-04-21T15:31:03.031Z,6.10
2019-04-21T15:33:32.366Z,5.03
2019-04-21T15:36:02.932Z,5.77
2019-04-21T15:38:33.904Z,5.43
2019-04-21T15:41:08.327Z,5.27
2019-04-21T15:43:38.534Z,5.27
2019-04-21T15:46:08.823Z,5.27
2019-04-21T15:48:41.440Z,5.40
2019-04-21T15:51:11.071Z,5.20
2019-04-21T15:53:41.811Z,5.30
2019-04-21T15:56:20.561Z,5.57
2019-04-21T15:59:04.570Z,5.23
2019-04-21T16:01:38.872Z,4.83
2019-04-21T16:04:08.539Z,5.90
2019-04-21T16:06:39.306Z,5.97
2019-04-21T16:09:15.726Z,5.27
2019-04-21T16:11:42.046Z,5.67
2019-04-21T16:14:11.558Z,6.60
2019-04-21T16:16:41.234Z,5.37
2019-04-21T16:19:12.141Z,5.73
2019-04-21T16:21:44.416Z,5.90
2019-04-21T16:24:14.154Z,5.13
2019-04-21T16:26:44.599Z,6.00
2019-04-21T16:29:15.263Z,6.10
2019-04-21T16:31:44.833Z,6.50
2019-04-21T16:34:15.707Z,5.77
2019-04-21T16:36:45.659Z,5.27
2019-04-21T16:39:15.591Z,9.57
2019-04-21T16:41:46.515Z,8.83
2019-04-21T16:44:16.850Z,7.67
2019-04-21T16:46:47.540Z,7.23
2019-04-21T16:49:17.911Z,6.97
2019-04-21T16:51:50.025Z,7.03
2019-04-21T16:54:28.103Z,7.70
2019-04-21T16:57:05.946Z,8.50
2019-04-21T16:59:39.902Z,8.87
2019-04-21T17:02:10.351Z,9.17
2019-04-21T17:04:40.370Z,9.33
2019-04-21T17:07:11.472Z,8.63
2019-04-21T17:09:41.072Z,9.23
2019-04-21T17:12:14.213Z,8.23
2019-04-21T17:14:57.138Z,9.10
2019-04-21T17:17:32.260Z,8.87
2019-04-21T17:19:47.626Z,9.40
2019-04-21T17:22:15.723Z,8.67
2019-04-21T17:24:46.468Z,10.97
2019-04-21T17:27:17.336Z,13.13
2019-04-21T17:29:48.514Z,12.57
2019-04-21T17:32:18.409Z,19.07
2019-04-21T17:34:47.969Z,19.60
2019-04-21T17:37:20.103Z,17.33
2019-04-21T17:39:49.197Z,21.50
2019-04-21T17:42:29.735Z,24.27
2019-04-21T17:44:50.956Z,27.70
2019-04-21T17:47:34.245Z,30.10
2019-04-21T17:50:23.288Z,26.47
2019-04-21T17:53:00.903Z,19.97
2019-04-21T17:55:31.329Z,19.00
2019-04-21T17:58:16.267Z,26.33
2019-04-21T18:03:32.871Z,26.70
2019-04-21T18:05:52.762Z,26.13
2019-04-21T18:08:32.599Z,27.60
2019-04-21T18:10:53.472Z,31.03
2019-04-21T18:13:17.588Z,33.17
2019-04-21T18:16:00.012Z,25.50
2019-04-21T18:18:14.865Z,26.43
2019-04-21T18:20:47.955Z,24.73
2019-04-21T18:23:52.096Z,30.07
2019-04-21T18:26:24.691Z,31.57
2019-04-21T18:28:44.701Z,35.67
2019-04-21T18:31:14.899Z,34.57
2019-04-21T18:34:02.315Z,35.13
2019-04-21T18:36:35.882Z,24.10
2019-04-21T18:39:43.352Z,20.03
2019-04-21T18:42:24.323Z,21.90
2019-04-21T18:45:36.011Z,27.93
2019-04-21T18:47:57.102Z,35.50
2019-04-21T18:50:41.612Z,26.60
2019-04-21T18:53:16.552Z,32.37
2019-04-21T18:55:45.307Z,18.17
2019-04-21T18:58:13.422Z,23.50
2019-04-21T19:00:45.341Z,19.37
2019-04-21T19:03:15.461Z,22.30
2019-04-21T19:05:47.835Z,18.27
2019-04-21T19:08:31.248Z,15.97
2019-04-21T19:11:10.365Z,18.80
2019-04-21T19:14:04.212Z,17.17
2019-04-21T19:18:50.649Z,16.37
2019-04-21T19:21:10.137Z,15.67
2019-04-21T19:23:57.915Z,15.17
2019-04-21T19:28:52.607Z,13.30
2019-04-21T19:31:28.191Z,11.13
2019-04-21T19:33:43.971Z,12.27
2019-04-21T19:36:03.468Z,12.43
2019-04-21T19:38:45.698Z,10.43
2019-04-21T19:41:20.997Z,10.23
2019-04-21T19:43:52.173Z,10.33
2019-04-21T19:46:23.623Z,10.53
2019-04-21T19:49:07.120Z,11.47
2019-04-21T19:51:21.936Z,11.03
2019-04-21T19:53:52.805Z,10.53
2019-04-21T19:56:12.086Z,9.67
2019-04-21T19:58:45.184Z,10.53
2019-04-21T20:01:14.105Z,9.87
2019-04-21T20:03:49.831Z,9.30
2019-04-21T20:06:28.820Z,10.07
2019-04-21T20:09:04.259Z,11.33
2019-04-21T20:11:34.649Z,10.37
2019-04-21T20:14:32.863Z,10.30
2019-04-21T20:16:41.723Z,11.03
2019-04-21T20:18:57.365Z,12.27
2019-04-21T20:21:22.817Z,13.03
2019-04-21T20:23:57.442Z,13.73
2019-04-21T20:26:30.397Z,14.27
2019-04-21T20:29:05.541Z,16.40
2019-04-21T20:31:43.079Z,18.47
2019-04-21T20:34:20.636Z,18.40
2019-04-21T20:36:51.415Z,17.07
2019-04-21T20:39:07.311Z,17.50
2019-04-21T20:41:41.984Z,18.27
2019-04-21T20:44:20.837Z,19.23
2019-04-21T20:46:52.644Z,19.10
2019-04-21T20:49:18.567Z,18.73
2019-04-21T20:51:53.916Z,15.10
2019-04-21T20:54:24.320Z,13.40
2019-04-21T20:56:59.782Z,12.40
2019-04-21T20:59:23.929Z,13.60
2019-04-21T21:01:56.697Z,12.30
2019-04-21T21:04:22.923Z,13.07
2019-04-21T21:06:59.687Z,12.00
2019-04-21T21:09:28.297Z,14.83
2019-04-21T21:12:19.487Z,11.27
2019-04-21T21:14:31.950Z,10.90
2019-04-21T21:17:03.022Z,10.83
2019-04-21T21:19:34.785Z,10.60
2019-04-21T21:22:01.687Z,10.40
2019-04-21T21:24:41.610Z,9.83
2019-04-21T21:27:09.118Z,9.33
2019-04-21T21:29:41.312Z,11.70
2019-04-21T21:32:16.221Z,11.83
2019-04-21T21:34:47.240Z,12.37
2019-04-21T21:37:21.012Z,15.13
2019-04-21T21:39:52.104Z,16.30
2019-04-21T21:42:01.858Z,13.23
2019-04-21T21:44:30.683Z,13.00
2019-04-21T21:47:14.223Z,12.97
2019-04-21T21:49:45.764Z,8.13
2019-04-21T21:52:11.517Z,8.97
2019-04-21T21:54:33.932Z,8.90
2019-04-21T21:57:04.764Z,7.80
2019-04-21T21:59:38.093Z,9.23
2019-04-21T22:02:09.423Z,8.70
2019-04-21T22:04:38.914Z,8.50
2019-04-21T22:07:13.529Z,7.30
2019-04-21T22:09:39.960Z,8.13
2019-04-21T22:12:10.979Z,8.07
2019-04-21T22:14:44.835Z,8.67
2019-04-21T22:17:28.999Z,8.90
2019-04-21T22:20:06.550Z,9.10
2019-04-21T22:22:29.869Z,10.37
2019-04-21T22:24:56.300Z,10.50
2019-04-21T22:27:17.020Z,11.17
2019-04-21T22:29:52.711Z,9.73
2019-04-21T22:32:23.373Z,9.53
2019-04-21T22:34:54.686Z,10.83
2019-04-21T22:37:36.809Z,8.97
2019-04-21T22:40:04.451Z,9.40
2019-04-21T22:42:27.647Z,7.63
2019-04-21T22:44:54.525Z,10.67
2019-04-21T22:47:29.886Z,8.00
2019-04-21T22:49:55.035Z,8.00
2019-04-21T22:52:27.913Z,7.20
2019-04-21T22:54:55.975Z,7.53
2019-04-21T22:57:28.719Z,7.07
2019-04-21T23:00:01.103Z,7.40
2019-04-21T23:02:30.452Z,7.07
2019-04-21T23:05:00.515Z,7.43
2019-04-21T23:07:33.621Z,8.00
2019-04-21T23:10:05.380Z,8.30
2019-04-21T23:12:38.731Z,8.33
2019-04-21T23:15:13.409Z,9.33
2019-04-21T23:18:00.834Z,10.13
2019-04-21T23:20:32.512Z,8.67
2019-04-21T23:23:07.373Z,8.90
2019-04-21T23:25:26.617Z,9.40
2019-04-21T23:27:56.204Z,14.30
2019-04-21T23:30:38.861Z,11.27
2019-04-21T23:32:54.742Z,11.70
2019-04-21T23:35:26.490Z,9.17
2019-04-21T23:37:57.547Z,9.30
2019-04-21T23:40:23.499Z,10.03
2019-04-21T23:42:53.043Z,9.23
2019-04-21T23:45:27.449Z,9.30
2019-04-21T23:48:08.053Z,18.80
2019-04-21T23:50:34.192Z,11.60
2019-04-21T23:52:55.791Z,11.30
2019-04-21T23:55:25.636Z,11.20
2019-04-21T23:58:04.983Z,11.33
